sensor_id;sensor_type;location;lat;lon;timestamp;P1;durP1;ratioP1;P2;durP2;ratioP2
15878;SDS011;61999;51.514;14.614;2023-12-20T00:01:50;4.93;;;3.90;;
15878;SDS011;61999;51.514;14.614;2023-12-20T00:04:19;3.80;;;3.40;;
15878;SDS011;61999;51.514;14.614;2023-12-20T00:06:47;4.90;;;3.97;;
15878;SDS011;61999;51.514;14.614;2023-12-20T00:09:15;3.63;;;2.87;;
15878;SDS011;61999;51.514;14.614;2023-12-20T00:11:43;3.23;;;2.00;;
15878;SDS011;61999;51.514;14.614;2023-12-20T00:14:12;3.77;;;3.37;;
15878;SDS011;61999;51.514;14.614;2023-12-20T00:16:41;2.03;;;1.93;;
15878;SDS011;61999;51.514;14.614;2023-12-20T00:19:09;3.87;;;3.33;;
15878;SDS011;61999;51.514;14.614;2023-12-20T00:21:38;3.53;;;3.23;;
15878;SDS011;61999;51.514;14.614;2023-12-20T00:24:06;4.17;;;3.27;;
15878;SDS011;61999;51.514;14.614;2023-12-20T00:26:35;4.03;;;3.63;;
15878;SDS011;61999;51.514;14.614;2023-12-20T00:29:02;3.80;;;3.50;;
15878;SDS011;61999;51.514;14.614;2023-12-20T00:31:31;3.53;;;2.40;;
15878;SDS011;61999;51.514;14.614;2023-12-20T00:33:59;4.03;;;3.30;;
15878;SDS011;61999;51.514;14.614;2023-12-20T00:36:27;2.00;;;1.87;;
15878;SDS011;61999;51.514;14.614;2023-12-20T00:38:57;4.37;;;2.97;;
15878;SDS011;61999;51.514;14.614;2023-12-20T00:41:25;4.37;;;2.77;;
15878;SDS011;61999;51.514;14.614;2023-12-20T00:43:54;3.93;;;3.63;;
15878;SDS011;61999;51.514;14.614;2023-12-20T00:46:22;4.87;;;2.67;;
15878;SDS011;61999;51.514;14.614;2023-12-20T00:48:50;3.40;;;2.70;;
15878;SDS011;61999;51.514;14.614;2023-12-20T00:51:18;3.97;;;2.87;;
15878;SDS011;61999;51.514;14.614;2023-12-20T00:53:46;2.27;;;2.13;;
15878;SDS011;61999;51.514;14.614;2023-12-20T00:56:22;3.43;;;3.10;;
15878;SDS011;61999;51.514;14.614;2023-12-20T00:58:50;4.70;;;3.43;;
15878;SDS011;61999;51.514;14.614;2023-12-20T01:01:18;3.07;;;2.50;;
15878;SDS011;61999;51.514;14.614;2023-12-20T01:03:46;3.70;;;3.40;;
15878;SDS011;61999;51.514;14.614;2023-12-20T01:06:14;2.57;;;2.37;;
15878;SDS011;61999;51.514;14.614;2023-12-20T01:08:42;2.97;;;2.43;;
15878;SDS011;61999;51.514;14.614;2023-12-20T01:11:10;1.53;;;1.43;;
15878;SDS011;61999;51.514;14.614;2023-12-20T01:13:40;3.83;;;2.23;;
15878;SDS011;61999;51.514;14.614;2023-12-20T01:16:10;3.10;;;2.90;;
15878;SDS011;61999;51.514;14.614;2023-12-20T01:18:38;3.17;;;1.80;;
15878;SDS011;61999;51.514;14.614;2023-12-20T01:21:06;2.63;;;2.40;;
15878;SDS011;61999;51.514;14.614;2023-12-20T01:23:34;2.03;;;1.83;;
15878;SDS011;61999;51.514;14.614;2023-12-20T01:26:02;1.30;;;1.20;;
15878;SDS011;61999;51.514;14.614;2023-12-20T01:28:31;1.87;;;1.63;;
15878;SDS011;61999;51.514;14.614;2023-12-20T01:31:04;1.80;;;1.70;;
15878;SDS011;61999;51.514;14.614;2023-12-20T01:33:33;1.60;;;1.43;;
15878;SDS011;61999;51.514;14.614;2023-12-20T01:36:02;3.20;;;2.90;;
15878;SDS011;61999;51.514;14.614;2023-12-20T01:38:31;2.77;;;2.57;;
15878;SDS011;61999;51.514;14.614;2023-12-20T01:41:00;3.20;;;2.23;;
15878;SDS011;61999;51.514;14.614;2023-12-20T01:43:28;2.43;;;1.63;;
15878;SDS011;61999;51.514;14.614;2023-12-20T01:46:00;3.83;;;2.83;;
15878;SDS011;61999;51.514;14.614;2023-12-20T01:48:31;2.80;;;2.40;;
15878;SDS011;61999;51.514;14.614;2023-12-20T01:51:00;3.30;;;2.80;;
15878;SDS011;61999;51.514;14.614;2023-12-20T01:53:29;2.50;;;2.30;;
15878;SDS011;61999;51.514;14.614;2023-12-20T01:55:59;3.43;;;2.53;;
15878;SDS011;61999;51.514;14.614;2023-12-20T01:58:32;2.93;;;2.67;;
15878;SDS011;61999;51.514;14.614;2023-12-20T02:01:03;2.87;;;2.37;;
15878;SDS011;61999;51.514;14.614;2023-12-20T02:03:33;2.77;;;1.67;;
15878;SDS011;61999;51.514;14.614;2023-12-20T02:06:03;2.60;;;2.40;;
15878;SDS011;61999;51.514;14.614;2023-12-20T02:08:36;2.67;;;2.40;;
15878;SDS011;61999;51.514;14.614;2023-12-20T02:11:04;2.63;;;2.30;;
15878;SDS011;61999;51.514;14.614;2023-12-20T02:13:32;3.53;;;3.20;;
15878;SDS011;61999;51.514;14.614;2023-12-20T02:16:01;2.53;;;2.33;;
15878;SDS011;61999;51.514;14.614;2023-12-20T02:18:30;3.07;;;1.63;;
15878;SDS011;61999;51.514;14.614;2023-12-20T02:21:02;2.53;;;2.33;;
15878;SDS011;61999;51.514;14.614;2023-12-20T02:23:34;2.57;;;2.20;;
15878;SDS011;61999;51.514;14.614;2023-12-20T02:26:02;2.80;;;2.60;;
15878;SDS011;61999;51.514;14.614;2023-12-20T02:28:32;3.27;;;2.77;;
15878;SDS011;61999;51.514;14.614;2023-12-20T02:31:02;2.80;;;2.60;;
15878;SDS011;61999;51.514;14.614;2023-12-20T02:33:30;1.53;;;1.43;;
15878;SDS011;61999;51.514;14.614;2023-12-20T02:35:58;2.50;;;1.30;;
15878;SDS011;61999;51.514;14.614;2023-12-20T02:38:26;3.20;;;2.80;;
15878;SDS011;61999;51.514;14.614;2023-12-20T02:40:55;2.67;;;2.47;;
15878;SDS011;61999;51.514;14.614;2023-12-20T02:43:23;3.63;;;3.17;;
15878;SDS011;61999;51.514;14.614;2023-12-20T02:45:52;2.80;;;2.23;;
15878;SDS011;61999;51.514;14.614;2023-12-20T02:48:20;2.83;;;2.60;;
15878;SDS011;61999;51.514;14.614;2023-12-20T02:50:48;2.60;;;2.40;;
15878;SDS011;61999;51.514;14.614;2023-12-20T02:53:16;2.03;;;1.73;;
15878;SDS011;61999;51.514;14.614;2023-12-20T02:55:44;2.83;;;2.20;;
15878;SDS011;61999;51.514;14.614;2023-12-20T02:58:14;3.03;;;2.73;;
15878;SDS011;61999;51.514;14.614;2023-12-20T03:00:44;3.77;;;2.70;;
15878;SDS011;61999;51.514;14.614;2023-12-20T03:03:12;3.43;;;2.77;;
15878;SDS011;61999;51.514;14.614;2023-12-20T03:05:40;2.23;;;1.50;;
15878;SDS011;61999;51.514;14.614;2023-12-20T03:08:09;1.33;;;1.23;;
15878;SDS011;61999;51.514;14.614;2023-12-20T03:10:39;1.43;;;1.10;;
15878;SDS011;61999;51.514;14.614;2023-12-20T03:13:07;3.37;;;2.13;;
15878;SDS011;61999;51.514;14.614;2023-12-20T03:15:36;2.90;;;2.43;;
15878;SDS011;61999;51.514;14.614;2023-12-20T03:18:04;2.90;;;2.57;;
15878;SDS011;61999;51.514;14.614;2023-12-20T03:20:34;3.27;;;2.97;;
15878;SDS011;61999;51.514;14.614;2023-12-20T03:23:03;2.03;;;1.60;;
15878;SDS011;61999;51.514;14.614;2023-12-20T03:25:31;4.43;;;3.03;;
15878;SDS011;61999;51.514;14.614;2023-12-20T03:27:59;2.50;;;2.30;;
15878;SDS011;61999;51.514;14.614;2023-12-20T03:30:28;1.10;;;1.03;;
15878;SDS011;61999;51.514;14.614;2023-12-20T03:32:57;2.17;;;1.90;;
15878;SDS011;61999;51.514;14.614;2023-12-20T03:35:25;1.40;;;1.03;;
15878;SDS011;61999;51.514;14.614;2023-12-20T03:37:54;2.77;;;2.53;;
15878;SDS011;61999;51.514;14.614;2023-12-20T03:40:23;3.30;;;2.57;;
15878;SDS011;61999;51.514;14.614;2023-12-20T03:42:51;2.57;;;1.30;;
15878;SDS011;61999;51.514;14.614;2023-12-20T03:45:19;1.67;;;1.57;;
15878;SDS011;61999;51.514;14.614;2023-12-20T03:47:48;1.67;;;1.53;;
15878;SDS011;61999;51.514;14.614;2023-12-20T03:50:18;1.23;;;1.13;;
15878;SDS011;61999;51.514;14.614;2023-12-20T03:52:46;0.90;;;0.73;;
15878;SDS011;61999;51.514;14.614;2023-12-20T03:55:15;2.00;;;1.80;;
15878;SDS011;61999;51.514;14.614;2023-12-20T03:57:44;2.50;;;2.30;;
15878;SDS011;61999;51.514;14.614;2023-12-20T04:00:13;2.53;;;2.10;;
15878;SDS011;61999;51.514;14.614;2023-12-20T04:02:42;1.87;;;1.73;;
15878;SDS011;61999;51.514;14.614;2023-12-20T04:05:11;2.53;;;2.33;;
15878;SDS011;61999;51.514;14.614;2023-12-20T04:07:41;2.03;;;1.73;;
15878;SDS011;61999;51.514;14.614;2023-12-20T04:10:10;1.67;;;1.40;;
15878;SDS011;61999;51.514;14.614;2023-12-20T04:12:39;2.83;;;2.53;;
15878;SDS011;61999;51.514;14.614;2023-12-20T04:15:07;0.90;;;0.90;;
15878;SDS011;61999;51.514;14.614;2023-12-20T04:17:38;2.67;;;2.47;;
15878;SDS011;61999;51.514;14.614;2023-12-20T04:20:07;2.73;;;2.10;;
15878;SDS011;61999;51.514;14.614;2023-12-20T04:22:36;4.30;;;2.13;;
15878;SDS011;61999;51.514;14.614;2023-12-20T04:25:06;1.53;;;1.43;;
15878;SDS011;61999;51.514;14.614;2023-12-20T04:27:36;2.17;;;1.90;;
15878;SDS011;61999;51.514;14.614;2023-12-20T04:30:05;2.63;;;2.43;;
15878;SDS011;61999;51.514;14.614;2023-12-20T04:32:35;1.47;;;1.37;;
15878;SDS011;61999;51.514;14.614;2023-12-20T04:35:04;2.30;;;2.10;;
15878;SDS011;61999;51.514;14.614;2023-12-20T04:37:33;2.63;;;2.43;;
15878;SDS011;61999;51.514;14.614;2023-12-20T04:40:09;3.10;;;2.80;;
15878;SDS011;61999;51.514;14.614;2023-12-20T04:42:38;2.20;;;2.00;;
15878;SDS011;61999;51.514;14.614;2023-12-20T04:45:07;2.17;;;1.97;;
15878;SDS011;61999;51.514;14.614;2023-12-20T04:47:39;2.03;;;1.83;;
15878;SDS011;61999;51.514;14.614;2023-12-20T04:50:14;2.10;;;1.90;;
15878;SDS011;61999;51.514;14.614;2023-12-20T04:52:43;2.10;;;1.40;;
15878;SDS011;61999;51.514;14.614;2023-12-20T04:55:13;2.10;;;2.00;;
15878;SDS011;61999;51.514;14.614;2023-12-20T04:57:42;1.60;;;1.50;;
15878;SDS011;61999;51.514;14.614;2023-12-20T05:00:11;1.87;;;1.77;;
15878;SDS011;61999;51.514;14.614;2023-12-20T05:02:42;2.23;;;2.07;;
15878;SDS011;61999;51.514;14.614;2023-12-20T05:05:10;1.57;;;1.47;;
15878;SDS011;61999;51.514;14.614;2023-12-20T05:07:39;2.10;;;1.53;;
15878;SDS011;61999;51.514;14.614;2023-12-20T05:10:07;2.17;;;1.97;;
15878;SDS011;61999;51.514;14.614;2023-12-20T05:12:38;1.50;;;1.40;;
15878;SDS011;61999;51.514;14.614;2023-12-20T05:15:06;3.63;;;1.93;;
15878;SDS011;61999;51.514;14.614;2023-12-20T05:17:35;1.60;;;1.50;;
15878;SDS011;61999;51.514;14.614;2023-12-20T05:20:03;1.83;;;1.73;;
15878;SDS011;61999;51.514;14.614;2023-12-20T05:22:33;2.93;;;1.37;;
15878;SDS011;61999;51.514;14.614;2023-12-20T05:25:03;1.70;;;1.60;;
15878;SDS011;61999;51.514;14.614;2023-12-20T05:27:32;1.50;;;1.40;;
15878;SDS011;61999;51.514;14.614;2023-12-20T05:30:02;1.57;;;1.47;;
15878;SDS011;61999;51.514;14.614;2023-12-20T05:32:31;1.10;;;1.00;;
15878;SDS011;61999;51.514;14.614;2023-12-20T05:34:59;1.87;;;1.70;;
15878;SDS011;61999;51.514;14.614;2023-12-20T05:37:27;1.97;;;1.10;;
15878;SDS011;61999;51.514;14.614;2023-12-20T05:39:55;1.37;;;1.27;;
15878;SDS011;61999;51.514;14.614;2023-12-20T05:42:26;1.57;;;1.47;;
15878;SDS011;61999;51.514;14.614;2023-12-20T05:44:54;1.40;;;1.30;;
15878;SDS011;61999;51.514;14.614;2023-12-20T05:47:24;1.47;;;1.37;;
15878;SDS011;61999;51.514;14.614;2023-12-20T05:49:52;1.47;;;1.17;;
15878;SDS011;61999;51.514;14.614;2023-12-20T05:52:20;0.90;;;0.90;;
15878;SDS011;61999;51.514;14.614;2023-12-20T05:54:49;1.00;;;1.00;;
15878;SDS011;61999;51.514;14.614;2023-12-20T05:57:19;1.10;;;1.00;;
15878;SDS011;61999;51.514;14.614;2023-12-20T05:59:47;1.30;;;1.20;;
15878;SDS011;61999;51.514;14.614;2023-12-20T06:02:15;1.37;;;1.07;;
15878;SDS011;61999;51.514;14.614;2023-12-20T06:04:46;1.30;;;1.10;;
15878;SDS011;61999;51.514;14.614;2023-12-20T06:07:14;1.13;;;1.03;;
15878;SDS011;61999;51.514;14.614;2023-12-20T06:09:43;2.17;;;1.50;;
15878;SDS011;61999;51.514;14.614;2023-12-20T06:12:11;0.63;;;0.63;;
15878;SDS011;61999;51.514;14.614;2023-12-20T06:14:39;1.20;;;1.10;;
15878;SDS011;61999;51.514;14.614;2023-12-20T06:17:07;1.20;;;1.10;;
15878;SDS011;61999;51.514;14.614;2023-12-20T06:19:35;1.17;;;1.07;;
15878;SDS011;61999;51.514;14.614;2023-12-20T06:22:05;0.70;;;0.70;;
15878;SDS011;61999;51.514;14.614;2023-12-20T06:24:34;1.53;;;1.10;;
15878;SDS011;61999;51.514;14.614;2023-12-20T06:27:02;0.73;;;0.73;;
15878;SDS011;61999;51.514;14.614;2023-12-20T06:29:30;0.97;;;0.87;;
15878;SDS011;61999;51.514;14.614;2023-12-20T06:31:58;1.20;;;1.07;;
15878;SDS011;61999;51.514;14.614;2023-12-20T06:34:26;1.40;;;1.10;;
15878;SDS011;61999;51.514;14.614;2023-12-20T06:36:58;1.13;;;1.07;;
15878;SDS011;61999;51.514;14.614;2023-12-20T06:39:28;1.20;;;1.20;;
15878;SDS011;61999;51.514;14.614;2023-12-20T06:41:57;1.30;;;1.20;;
15878;SDS011;61999;51.514;14.614;2023-12-20T06:44:25;0.90;;;0.90;;
15878;SDS011;61999;51.514;14.614;2023-12-20T06:46:53;2.30;;;1.50;;
15878;SDS011;61999;51.514;14.614;2023-12-20T06:49:21;1.30;;;1.20;;
15878;SDS011;61999;51.514;14.614;2023-12-20T06:51:49;1.30;;;1.20;;
15878;SDS011;61999;51.514;14.614;2023-12-20T06:54:17;1.63;;;1.53;;
15878;SDS011;61999;51.514;14.614;2023-12-20T06:56:47;1.50;;;1.40;;
15878;SDS011;61999;51.514;14.614;2023-12-20T06:59:15;1.70;;;1.37;;
15878;SDS011;61999;51.514;14.614;2023-12-20T07:01:47;1.80;;;1.50;;
15878;SDS011;61999;51.514;14.614;2023-12-20T07:04:16;1.30;;;1.20;;
15878;SDS011;61999;51.514;14.614;2023-12-20T07:06:46;1.30;;;1.20;;
15878;SDS011;61999;51.514;14.614;2023-12-20T07:09:17;1.63;;;1.10;;
15878;SDS011;61999;51.514;14.614;2023-12-20T07:11:47;1.10;;;1.00;;
15878;SDS011;61999;51.514;14.614;2023-12-20T07:14:15;1.07;;;0.70;;
15878;SDS011;61999;51.514;14.614;2023-12-20T07:16:43;1.40;;;1.30;;
15878;SDS011;61999;51.514;14.614;2023-12-20T07:19:11;1.63;;;1.40;;
15878;SDS011;61999;51.514;14.614;2023-12-20T07:21:40;3.00;;;1.60;;
15878;SDS011;61999;51.514;14.614;2023-12-20T07:24:08;2.40;;;1.27;;
15878;SDS011;61999;51.514;14.614;2023-12-20T07:26:36;3.10;;;1.20;;
15878;SDS011;61999;51.514;14.614;2023-12-20T07:29:07;2.27;;;1.50;;
15878;SDS011;61999;51.514;14.614;2023-12-20T07:31:35;0.80;;;0.80;;
15878;SDS011;61999;51.514;14.614;2023-12-20T07:34:04;3.50;;;1.70;;
15878;SDS011;61999;51.514;14.614;2023-12-20T07:36:33;2.57;;;1.83;;
15878;SDS011;61999;51.514;14.614;2023-12-20T07:39:01;2.47;;;1.60;;
15878;SDS011;61999;51.514;14.614;2023-12-20T07:41:29;1.97;;;1.67;;
15878;SDS011;61999;51.514;14.614;2023-12-20T07:43:57;4.67;;;2.30;;
15878;SDS011;61999;51.514;14.614;2023-12-20T07:46:26;5.13;;;1.70;;
15878;SDS011;61999;51.514;14.614;2023-12-20T07:48:54;4.83;;;2.27;;
15878;SDS011;61999;51.514;14.614;2023-12-20T07:51:22;4.90;;;1.50;;
15878;SDS011;61999;51.514;14.614;2023-12-20T07:53:51;2.97;;;2.10;;
15878;SDS011;61999;51.514;14.614;2023-12-20T07:56:19;1.80;;;1.70;;
15878;SDS011;61999;51.514;14.614;2023-12-20T07:58:48;2.90;;;2.57;;
15878;SDS011;61999;51.514;14.614;2023-12-20T08:01:16;3.17;;;2.13;;
15878;SDS011;61999;51.514;14.614;2023-12-20T08:03:47;2.93;;;2.10;;
15878;SDS011;61999;51.514;14.614;2023-12-20T08:06:16;2.87;;;1.87;;
15878;SDS011;61999;51.514;14.614;2023-12-20T08:08:45;2.53;;;2.33;;
15878;SDS011;61999;51.514;14.614;2023-12-20T08:11:15;1.07;;;1.00;;
15878;SDS011;61999;51.514;14.614;2023-12-20T08:13:43;5.00;;;2.20;;
15878;SDS011;61999;51.514;14.614;2023-12-20T08:16:12;3.13;;;1.90;;
15878;SDS011;61999;51.514;14.614;2023-12-20T08:18:42;3.10;;;1.83;;
15878;SDS011;61999;51.514;14.614;2023-12-20T08:21:11;4.90;;;2.93;;
15878;SDS011;61999;51.514;14.614;2023-12-20T08:23:39;0.93;;;0.93;;
15878;SDS011;61999;51.514;14.614;2023-12-20T08:26:07;3.87;;;2.57;;
15878;SDS011;61999;51.514;14.614;2023-12-20T08:28:36;1.83;;;1.50;;
15878;SDS011;61999;51.514;14.614;2023-12-20T08:31:04;3.87;;;2.60;;
15878;SDS011;61999;51.514;14.614;2023-12-20T08:33:33;3.00;;;2.70;;
15878;SDS011;61999;51.514;14.614;2023-12-20T08:36:01;4.50;;;2.33;;
15878;SDS011;61999;51.514;14.614;2023-12-20T08:38:33;4.63;;;2.93;;
15878;SDS011;61999;51.514;14.614;2023-12-20T08:41:01;4.03;;;2.93;;
15878;SDS011;61999;51.514;14.614;2023-12-20T08:43:31;3.60;;;2.63;;
15878;SDS011;61999;51.514;14.614;2023-12-20T08:45:59;4.90;;;3.20;;
15878;SDS011;61999;51.514;14.614;2023-12-20T08:48:27;4.60;;;3.10;;
15878;SDS011;61999;51.514;14.614;2023-12-20T08:50:56;5.00;;;3.57;;
15878;SDS011;61999;51.514;14.614;2023-12-20T08:53:24;4.27;;;2.83;;
15878;SDS011;61999;51.514;14.614;2023-12-20T08:55:54;3.33;;;2.47;;
15878;SDS011;61999;51.514;14.614;2023-12-20T08:58:24;3.27;;;2.60;;
15878;SDS011;61999;51.514;14.614;2023-12-20T09:00:52;3.07;;;2.77;;
15878;SDS011;61999;51.514;14.614;2023-12-20T09:03:20;3.33;;;2.20;;
15878;SDS011;61999;51.514;14.614;2023-12-20T09:05:48;5.13;;;3.30;;
15878;SDS011;61999;51.514;14.614;2023-12-20T09:08:16;4.57;;;2.50;;
15878;SDS011;61999;51.514;14.614;2023-12-20T09:10:44;5.10;;;2.30;;
15878;SDS011;61999;51.514;14.614;2023-12-20T09:13:14;5.57;;;1.90;;
15878;SDS011;61999;51.514;14.614;2023-12-20T09:15:42;3.67;;;2.13;;
15878;SDS011;61999;51.514;14.614;2023-12-20T09:18:10;2.50;;;2.17;;
15878;SDS011;61999;51.514;14.614;2023-12-20T09:20:38;1.80;;;1.37;;
15878;SDS011;61999;51.514;14.614;2023-12-20T09:23:07;1.67;;;0.90;;
15878;SDS011;61999;51.514;14.614;2023-12-20T09:25:35;5.83;;;1.80;;
15878;SDS011;61999;51.514;14.614;2023-12-20T09:28:03;5.87;;;1.93;;
15878;SDS011;61999;51.514;14.614;2023-12-20T09:30:34;4.13;;;1.90;;
15878;SDS011;61999;51.514;14.614;2023-12-20T09:33:05;3.10;;;1.90;;
15878;SDS011;61999;51.514;14.614;2023-12-20T09:35:34;2.23;;;1.83;;
15878;SDS011;61999;51.514;14.614;2023-12-20T09:38:03;0.90;;;0.90;;
15878;SDS011;61999;51.514;14.614;2023-12-20T09:40:32;2.40;;;1.53;;
15878;SDS011;61999;51.514;14.614;2023-12-20T09:43:04;2.67;;;2.10;;
15878;SDS011;61999;51.514;14.614;2023-12-20T09:45:39;2.30;;;1.93;;
15878;SDS011;61999;51.514;14.614;2023-12-20T09:48:08;2.37;;;1.20;;
15878;SDS011;61999;51.514;14.614;2023-12-20T09:50:40;4.30;;;2.13;;
15878;SDS011;61999;51.514;14.614;2023-12-20T09:53:11;1.50;;;1.37;;
15878;SDS011;61999;51.514;14.614;2023-12-20T09:55:43;2.57;;;1.70;;
15878;SDS011;61999;51.514;14.614;2023-12-20T09:58:11;2.43;;;1.00;;
15878;SDS011;61999;51.514;14.614;2023-12-20T10:00:42;1.23;;;1.13;;
15878;SDS011;61999;51.514;14.614;2023-12-20T10:03:10;2.97;;;1.70;;
15878;SDS011;61999;51.514;14.614;2023-12-20T10:05:42;2.73;;;1.17;;
15878;SDS011;61999;51.514;14.614;2023-12-20T10:08:12;2.17;;;1.50;;
15878;SDS011;61999;51.514;14.614;2023-12-20T10:10:40;4.87;;;2.13;;
15878;SDS011;61999;51.514;14.614;2023-12-20T10:13:10;1.70;;;1.30;;
15878;SDS011;61999;51.514;14.614;2023-12-20T10:15:40;2.70;;;1.17;;
15878;SDS011;61999;51.514;14.614;2023-12-20T10:18:11;2.40;;;1.77;;
15878;SDS011;61999;51.514;14.614;2023-12-20T10:20:40;2.57;;;1.50;;
15878;SDS011;61999;51.514;14.614;2023-12-20T10:23:09;1.17;;;1.00;;
15878;SDS011;61999;51.514;14.614;2023-12-20T10:25:38;0.87;;;0.33;;
15878;SDS011;61999;51.514;14.614;2023-12-20T10:28:08;3.37;;;1.40;;
15878;SDS011;61999;51.514;14.614;2023-12-20T10:30:39;2.77;;;1.30;;
15878;SDS011;61999;51.514;14.614;2023-12-20T10:33:10;3.50;;;0.80;;
15878;SDS011;61999;51.514;14.614;2023-12-20T10:35:39;2.63;;;0.80;;
15878;SDS011;61999;51.514;14.614;2023-12-20T10:38:08;4.00;;;1.40;;
15878;SDS011;61999;51.514;14.614;2023-12-20T10:40:39;1.63;;;1.10;;
15878;SDS011;61999;51.514;14.614;2023-12-20T10:43:07;1.87;;;1.27;;
15878;SDS011;61999;51.514;14.614;2023-12-20T10:45:37;1.20;;;0.83;;
15878;SDS011;61999;51.514;14.614;2023-12-20T10:48:06;1.83;;;1.00;;
15878;SDS011;61999;51.514;14.614;2023-12-20T10:50:39;1.20;;;1.10;;
15878;SDS011;61999;51.514;14.614;2023-12-20T10:53:08;1.67;;;0.90;;
15878;SDS011;61999;51.514;14.614;2023-12-20T10:55:38;1.77;;;1.10;;
15878;SDS011;61999;51.514;14.614;2023-12-20T10:58:07;1.97;;;1.07;;
15878;SDS011;61999;51.514;14.614;2023-12-20T11:00:37;2.00;;;1.30;;
15878;SDS011;61999;51.514;14.614;2023-12-20T11:03:08;2.10;;;0.87;;
15878;SDS011;61999;51.514;14.614;2023-12-20T11:05:43;1.43;;;1.03;;
15878;SDS011;61999;51.514;14.614;2023-12-20T11:08:24;6.37;;;1.20;;
15878;SDS011;61999;51.514;14.614;2023-12-20T11:11:02;2.40;;;0.97;;
15878;SDS011;61999;51.514;14.614;2023-12-20T11:13:40;1.33;;;0.60;;
15878;SDS011;61999;51.514;14.614;2023-12-20T11:16:20;2.43;;;1.70;;
15878;SDS011;61999;51.514;14.614;2023-12-20T11:18:50;3.37;;;0.90;;
15878;SDS011;61999;51.514;14.614;2023-12-20T11:21:20;2.13;;;1.10;;
15878;SDS011;61999;51.514;14.614;2023-12-20T11:23:48;3.77;;;1.17;;
15878;SDS011;61999;51.514;14.614;2023-12-20T11:26:16;1.17;;;1.00;;
15878;SDS011;61999;51.514;14.614;2023-12-20T11:28:54;2.43;;;1.10;;
15878;SDS011;61999;51.514;14.614;2023-12-20T11:32:00;2.43;;;0.90;;
15878;SDS011;61999;51.514;14.614;2023-12-20T11:34:33;0.50;;;0.50;;
15878;SDS011;61999;51.514;14.614;2023-12-20T11:37:05;1.13;;;0.60;;
15878;SDS011;61999;51.514;14.614;2023-12-20T11:39:34;2.73;;;1.40;;
15878;SDS011;61999;51.514;14.614;2023-12-20T11:42:04;5.30;;;1.00;;
15878;SDS011;61999;51.514;14.614;2023-12-20T11:44:34;2.23;;;1.10;;
15878;SDS011;61999;51.514;14.614;2023-12-20T11:47:04;3.23;;;1.10;;
15878;SDS011;61999;51.514;14.614;2023-12-20T11:49:32;0.87;;;0.70;;
15878;SDS011;61999;51.514;14.614;2023-12-20T11:52:00;3.60;;;1.83;;
15878;SDS011;61999;51.514;14.614;2023-12-20T11:54:31;0.93;;;0.60;;
15878;SDS011;61999;51.514;14.614;2023-12-20T11:56:59;1.93;;;0.93;;
15878;SDS011;61999;51.514;14.614;2023-12-20T11:59:27;4.07;;;1.17;;
15878;SDS011;61999;51.514;14.614;2023-12-20T12:01:55;1.93;;;0.67;;
15878;SDS011;61999;51.514;14.614;2023-12-20T12:04:27;1.83;;;0.93;;
15878;SDS011;61999;51.514;14.614;2023-12-20T12:06:55;0.67;;;0.67;;
15878;SDS011;61999;51.514;14.614;2023-12-20T12:09:23;6.33;;;0.93;;
15878;SDS011;61999;51.514;14.614;2023-12-20T12:11:52;0.40;;;0.40;;
15878;SDS011;61999;51.514;14.614;2023-12-20T12:14:20;3.70;;;1.03;;
15878;SDS011;61999;51.514;14.614;2023-12-20T12:16:49;4.03;;;1.30;;
15878;SDS011;61999;51.514;14.614;2023-12-20T12:19:20;6.97;;;1.50;;
15878;SDS011;61999;51.514;14.614;2023-12-20T12:21:49;4.33;;;1.37;;
15878;SDS011;61999;51.514;14.614;2023-12-20T12:24:20;4.00;;;1.23;;
15878;SDS011;61999;51.514;14.614;2023-12-20T12:26:56;1.20;;;0.80;;
15878;SDS011;61999;51.514;14.614;2023-12-20T12:29:25;2.03;;;1.27;;
15878;SDS011;61999;51.514;14.614;2023-12-20T12:31:53;3.10;;;1.80;;
15878;SDS011;61999;51.514;14.614;2023-12-20T12:34:21;1.27;;;1.00;;
15878;SDS011;61999;51.514;14.614;2023-12-20T12:36:51;3.47;;;1.20;;
15878;SDS011;61999;51.514;14.614;2023-12-20T12:39:19;2.90;;;1.20;;
15878;SDS011;61999;51.514;14.614;2023-12-20T12:41:47;1.83;;;1.07;;
15878;SDS011;61999;51.514;14.614;2023-12-20T12:44:17;1.50;;;1.40;;
15878;SDS011;61999;51.514;14.614;2023-12-20T12:46:45;3.00;;;1.23;;
15878;SDS011;61999;51.514;14.614;2023-12-20T12:49:16;0.77;;;0.70;;
15878;SDS011;61999;51.514;14.614;2023-12-20T12:51:44;1.73;;;0.70;;
15878;SDS011;61999;51.514;14.614;2023-12-20T12:54:12;1.63;;;0.70;;
15878;SDS011;61999;51.514;14.614;2023-12-20T12:56:42;3.67;;;0.97;;
15878;SDS011;61999;51.514;14.614;2023-12-20T12:59:10;1.93;;;1.20;;
15878;SDS011;61999;51.514;14.614;2023-12-20T13:01:40;2.63;;;1.53;;
15878;SDS011;61999;51.514;14.614;2023-12-20T13:04:08;1.63;;;1.43;;
15878;SDS011;61999;51.514;14.614;2023-12-20T13:06:37;1.80;;;0.87;;
15878;SDS011;61999;51.514;14.614;2023-12-20T13:09:07;5.37;;;1.50;;
15878;SDS011;61999;51.514;14.614;2023-12-20T13:11:35;3.50;;;1.33;;
15878;SDS011;61999;51.514;14.614;2023-12-20T13:14:04;1.70;;;0.80;;
15878;SDS011;61999;51.514;14.614;2023-12-20T13:16:32;0.90;;;0.87;;
15878;SDS011;61999;51.514;14.614;2023-12-20T13:19:02;2.30;;;1.33;;
15878;SDS011;61999;51.514;14.614;2023-12-20T13:21:31;2.30;;;1.20;;
15878;SDS011;61999;51.514;14.614;2023-12-20T13:23:59;2.53;;;1.40;;
15878;SDS011;61999;51.514;14.614;2023-12-20T13:26:27;1.73;;;1.50;;
15878;SDS011;61999;51.514;14.614;2023-12-20T13:28:55;2.27;;;1.23;;
15878;SDS011;61999;51.514;14.614;2023-12-20T13:31:23;2.00;;;1.10;;
15878;SDS011;61999;51.514;14.614;2023-12-20T13:33:51;5.23;;;1.60;;
15878;SDS011;61999;51.514;14.614;2023-12-20T13:36:21;2.00;;;0.80;;
15878;SDS011;61999;51.514;14.614;2023-12-20T13:39:03;2.00;;;1.10;;
15878;SDS011;61999;51.514;14.614;2023-12-20T13:41:31;0.80;;;0.80;;
15878;SDS011;61999;51.514;14.614;2023-12-20T13:43:59;2.00;;;1.00;;
15878;SDS011;61999;51.514;14.614;2023-12-20T13:46:29;4.33;;;1.53;;
15878;SDS011;61999;51.514;14.614;2023-12-20T13:48:58;2.20;;;1.40;;
15878;SDS011;61999;51.514;14.614;2023-12-20T13:51:28;1.03;;;0.83;;
15878;SDS011;61999;51.514;14.614;2023-12-20T13:53:56;1.80;;;0.93;;
15878;SDS011;61999;51.514;14.614;2023-12-20T13:56:25;5.90;;;0.80;;
15878;SDS011;61999;51.514;14.614;2023-12-20T13:58:53;9.13;;;0.87;;
15878;SDS011;61999;51.514;14.614;2023-12-20T14:01:22;3.40;;;1.60;;
15878;SDS011;61999;51.514;14.614;2023-12-20T14:03:51;0.80;;;0.80;;
15878;SDS011;61999;51.514;14.614;2023-12-20T14:06:19;2.47;;;1.33;;
15878;SDS011;61999;51.514;14.614;2023-12-20T14:08:48;0.67;;;0.67;;
15878;SDS011;61999;51.514;14.614;2023-12-20T14:11:16;2.97;;;1.07;;
15878;SDS011;61999;51.514;14.614;2023-12-20T14:13:45;1.20;;;1.10;;
15878;SDS011;61999;51.514;14.614;2023-12-20T14:16:13;1.03;;;0.80;;
15878;SDS011;61999;51.514;14.614;2023-12-20T14:18:43;3.53;;;0.70;;
15878;SDS011;61999;51.514;14.614;2023-12-20T14:21:11;3.57;;;1.40;;
15878;SDS011;61999;51.514;14.614;2023-12-20T14:23:39;1.90;;;1.30;;
15878;SDS011;61999;51.514;14.614;2023-12-20T14:26:11;3.40;;;1.63;;
15878;SDS011;61999;51.514;14.614;2023-12-20T14:28:41;1.53;;;1.13;;
15878;SDS011;61999;51.514;14.614;2023-12-20T14:31:09;2.97;;;0.80;;
15878;SDS011;61999;51.514;14.614;2023-12-20T14:33:37;1.37;;;1.23;;
15878;SDS011;61999;51.514;14.614;2023-12-20T14:36:07;2.20;;;0.93;;
15878;SDS011;61999;51.514;14.614;2023-12-20T14:38:35;1.97;;;1.00;;
15878;SDS011;61999;51.514;14.614;2023-12-20T14:41:03;2.40;;;1.23;;
15878;SDS011;61999;51.514;14.614;2023-12-20T14:43:36;2.87;;;1.27;;
15878;SDS011;61999;51.514;14.614;2023-12-20T14:46:04;2.50;;;1.57;;